Time;durP1;ratioP1;P1;durP2;ratioP2;P2;SDS_P1;SDS_P2;PMS_P1;PMS_P2;Temp;Humidity;BMP_temperature;BMP_pressure;BME280_temperature;BME280_humidity;BME280_pressure;Samples;Min_cycle;Max_cycle;Signal;HPM_P1;HPM_P2
2023/11/30 00:00:22;;;;;;;7.35;5.18;;;;;;;4.39;62.63;99925.84;5081045;27;97643;-75
2023/11/30 00:02:48;;;;;;;8.18;4.05;;;;;;;4.54;60.85;99929.81;5084219;27;97150;-75
2023/11/30 00:05:16;;;;;;;6.47;4.07;;;;;;;4.45;58.69;99923.06;5087772;27;96735;-78
2023/11/30 00:07:43;;;;;;;6.53;4.20;;;;;;;4.41;60.25;99927.50;5091914;27;98777;-77
2023/11/30 00:10:09;;;;;;;6.75;4.15;;;;;;;4.52;60.24;99932.50;5084155;27;98779;-78
2023/11/30 00:12:36;;;;;;;5.60;4.10;;;;;;;4.41;60.11;99935.34;5089054;27;96839;-78
2023/11/30 00:15:02;;;;;;;7.40;4.63;;;;;;;4.55;60.78;99940.25;5084970;27;96707;-78
2023/11/30 00:17:29;;;;;;;6.50;4.57;;;;;;;4.41;61.54;99937.97;5086214;27;99876;-78
2023/11/30 00:19:56;;;;;;;6.72;4.70;;;;;;;4.21;61.84;99950.63;5093173;27;100686;-77
2023/11/30 00:22:23;;;;;;;6.00;4.72;;;;;;;4.16;61.57;99952.50;5084913;27;99582;-75
2023/11/30 00:24:50;;;;;;;6.40;3.88;;;;;;;3.97;62.45;99956.41;5093804;27;97126;-74
2023/11/30 00:27:16;;;;;;;6.53;4.75;;;;;;;4.13;63.10;99959.56;5088010;27;98830;-75
2023/11/30 00:29:42;;;;;;;8.43;4.68;;;;;;;4.11;63.04;99963.94;5093785;27;98750;-78
2023/11/30 00:32:09;;;;;;;7.57;4.88;;;;;;;3.88;63.42;99964.41;5081812;27;97103;-75
2023/11/30 00:34:35;;;;;;;7.53;4.88;;;;;;;3.82;63.59;99964.56;5082279;27;97854;-75
2023/11/30 00:37:02;;;;;;;8.90;4.68;;;;;;;3.76;63.39;99959.44;5082693;27;99242;-75
2023/11/30 00:39:30;;;;;;;6.78;5.10;;;;;;;3.62;64.33;99959.72;5084958;27;98745;-75
2023/11/30 00:41:56;;;;;;;7.03;5.18;;;;;;;3.57;65.13;99962.44;5080531;27;97708;-74
2023/11/30 00:44:22;;;;;;;7.60;5.38;;;;;;;3.47;65.49;99966.13;5090292;27;96768;-77
2023/11/30 00:46:48;;;;;;;11.02;5.95;;;;;;;3.91;64.45;99962.63;5076340;27;99606;-77
2023/11/30 00:49:15;;;;;;;7.40;5.22;;;;;;;4.07;64.47;99959.69;5085429;27;97501;-77
2023/11/30 00:51:41;;;;;;;8.57;5.63;;;;;;;4.21;63.98;99960.22;5081943;27;97647;-78
2023/11/30 00:54:08;;;;;;;10.02;5.85;;;;;;;4.21;63.60;99965.47;5086605;27;96841;-77
2023/11/30 00:56:35;;;;;;;10.60;5.45;;;;;;;3.93;64.17;99968.69;5079533;27;98699;-79
2023/11/30 00:59:02;;;;;;;7.78;6.07;;;;;;;3.80;65.02;99966.34;5089209;27;100939;-78
2023/11/30 01:01:28;;;;;;;9.20;5.60;;;;;;;3.74;65.32;99969.94;5089915;27;96892;-78
2023/11/30 01:03:54;;;;;;;10.57;6.88;;;;;;;3.71;65.75;99963.91;5079286;27;96722;-78
2023/11/30 01:06:21;;;;;;;10.32;6.97;;;;;;;3.67;65.83;99972.72;5079018;27;100957;-78
2023/11/30 01:08:47;;;;;;;11.50;7.75;;;;;;;3.70;66.02;99976.13;5078036;27;99409;-78
2023/11/30 01:11:13;;;;;;;11.85;7.15;;;;;;;3.48;67.31;99973.03;5075831;27;96766;-77
2023/11/30 01:13:41;;;;;;;11.27;6.15;;;;;;;3.41;67.80;99984.53;5086362;27;98132;-77
2023/11/30 01:16:08;;;;;;;11.05;7.00;;;;;;;3.49;66.84;99982.63;5080060;27;98762;-78
2023/11/30 01:18:35;;;;;;;11.75;7.28;;;;;;;3.53;67.33;99979.06;5077264;27;99767;-78
2023/11/30 01:21:01;;;;;;;10.98;7.13;;;;;;;3.67;66.48;99994.47;5087897;27;96790;-77
2023/11/30 01:23:28;;;;;;;12.00;7.45;;;;;;;3.35;67.72;99992.44;5084628;27;96728;-77
2023/11/30 01:25:55;;;;;;;10.38;7.43;;;;;;;3.49;67.42;99987.84;5084978;27;99220;-77
2023/11/30 01:28:21;;;;;;;11.80;7.57;;;;;;;3.78;67.33;99989.03;5086333;27;99068;-77
2023/11/30 01:30:49;;;;;;;13.57;7.60;;;;;;;3.67;67.41;99997.09;5087117;27;96784;-77
2023/11/30 01:33:15;;;;;;;14.15;7.85;;;;;;;3.60;67.22;99993.75;5089572;27;97141;-77
2023/11/30 01:35:41;;;;;;;11.95;7.75;;;;;;;3.55;67.42;100000.78;5087828;27;98851;-78
2023/11/30 01:38:08;;;;;;;11.57;7.28;;;;;;;3.68;66.75;99997.94;5077238;27;99106;-77
2023/11/30 01:40:34;;;;;;;11.77;7.72;;;;;;;3.57;67.22;100000.75;5091138;27;96700;-77
2023/11/30 01:43:00;;;;;;;13.68;7.32;;;;;;;3.56;67.13;100007.72;5089946;27;96800;-77
2023/11/30 01:45:27;;;;;;;10.70;7.18;;;;;;;3.76;66.98;100007.34;5088051;27;98818;-77
2023/11/30 01:47:54;;;;;;;12.25;7.30;;;;;;;3.70;67.12;100009.22;5073032;27;98766;-77
2023/11/30 01:50:22;;;;;;;12.95;7.80;;;;;;;3.80;67.43;100008.16;5083936;27;96738;-77
2023/11/30 01:52:48;;;;;;;14.98;7.45;;;;;;;4.03;66.19;100008.56;5085185;27;96817;-77
2023/11/30 01:55:15;;;;;;;14.57;8.45;;;;;;;4.13;65.99;100015.34;5085980;27;97950;-77
2023/11/30 01:57:42;;;;;;;11.13;7.60;;;;;;;3.99;65.86;100019.97;5083087;27;98868;-77
2023/11/30 02:00:11;;;;;;;12.75;7.78;;;;;;;4.16;65.11;100020.47;5091801;27;96708;-77
2023/11/30 02:02:37;;;;;;;12.05;7.75;;;;;;;3.98;65.63;100010.41;5091033;27;97683;-77
2023/11/30 02:05:06;;;;;;;12.85;7.97;;;;;;;4.06;65.45;100024.19;5080207;27;99882;-77
2023/11/30 02:07:32;;;;;;;12.20;7.28;;;;;;;4.10;65.63;100020.59;5079497;27;102005;-77
2023/11/30 02:09:59;;;;;;;13.55;7.93;;;;;;;3.67;66.50;100020.63;5081034;27;96735;-78
2023/11/30 02:12:25;;;;;;;9.77;6.88;;;;;;;3.41;67.27;100023.72;5081240;27;97120;-77
2023/11/30 02:14:52;;;;;;;11.73;7.20;;;;;;;3.52;66.84;100016.53;5090466;27;97659;-77
2023/11/30 02:17:18;;;;;;;12.02;7.45;;;;;;;3.33;68.12;100015.13;5086184;27;98857;-77
2023/11/30 02:19:45;;;;;;;12.18;7.53;;;;;;;3.44;67.10;100013.19;5090096;27;96822;-77
2023/11/30 02:22:12;;;;;;;13.52;7.05;;;;;;;3.37;66.96;100005.50;5087439;27;96863;-77
2023/11/30 02:24:39;;;;;;;11.15;7.03;;;;;;;3.05;69.01;100008.66;5086940;27;101042;-77
2023/11/30 02:27:06;;;;;;;12.27;6.75;;;;;;;3.35;67.67;100008.13;5082905;27;101554;-78
2023/11/30 02:29:33;;;;;;;12.80;8.10;;;;;;;3.35;67.37;100000.28;5091600;27;96719;-77
2023/11/30 02:31:59;;;;;;;13.13;8.13;;;;;;;3.18;67.99;100015.41;5075167;27;96927;-78
2023/11/30 02:34:25;;;;;;;13.55;7.65;;;;;;;3.05;68.76;100008.66;5082236;27;101983;-77
2023/11/30 02:36:52;;;;;;;12.90;8.05;;;;;;;3.18;68.56;100004.94;5079530;27;99022;-78
2023/11/30 02:39:20;;;;;;;12.95;7.85;;;;;;;3.40;67.20;100006.31;5086008;27;96683;-78
2023/11/30 02:41:46;;;;;;;13.73;8.50;;;;;;;3.40;67.70;100011.53;5083911;27;98992;-78
2023/11/30 02:44:13;;;;;;;15.15;8.38;;;;;;;3.50;67.46;100005.25;5081337;27;98831;-78
2023/11/30 02:46:39;;;;;;;13.52;7.88;;;;;;;3.44;66.79;100005.34;5087151;27;98777;-77
2023/11/30 02:49:06;;;;;;;13.85;8.23;;;;;;;3.50;66.87;100018.28;5089128;27;96895;-78
2023/11/30 02:51:32;;;;;;;12.77;8.30;;;;;;;3.55;66.50;100013.84;5090777;27;96796;-78
2023/11/30 02:53:58;;;;;;;13.15;7.93;;;;;;;3.51;67.18;100022.63;5085213;27;98934;-78
2023/11/30 02:56:26;;;;;;;12.25;7.35;;;;;;;3.57;66.18;100025.13;5089035;27;101510;-77
2023/11/30 02:58:52;;;;;;;13.77;8.75;;;;;;;3.56;66.27;100012.97;5083384;27;97875;-78
2023/11/30 03:01:18;;;;;;;13.90;7.80;;;;;;;3.72;66.00;100012.69;5081063;27;96787;-77
2023/11/30 03:03:45;;;;;;;15.90;8.52;;;;;;;3.80;65.32;100010.78;5088695;27;99452;-77
2023/11/30 03:06:12;;;;;;;14.00;8.93;;;;;;;3.44;65.72;100018.41;5086199;27;99096;-77
2023/11/30 03:08:39;;;;;;;14.70;7.53;;;;;;;3.59;65.67;100017.28;5077764;27;96701;-77
2023/11/30 03:11:05;;;;;;;14.38;8.40;;;;;;;3.68;65.76;100011.84;5089362;27;97121;-77
2023/11/30 03:13:33;;;;;;;14.23;8.13;;;;;;;3.68;65.79;100016.22;5081095;27;97800;-77
2023/11/30 03:16:00;;;;;;;17.08;8.57;;;;;;;3.44;65.89;100017.53;5085432;27;98776;-78
2023/11/30 03:18:26;;;;;;;14.07;8.40;;;;;;;3.54;66.36;100009.50;5085494;27;96865;-78
2023/11/30 03:20:52;;;;;;;14.90;9.20;;;;;;;3.30;66.77;100004.72;5080326;27;96789;-77
2023/11/30 03:23:19;;;;;;;17.63;9.18;;;;;;;3.60;66.19;100004.19;5084459;27;98867;-78
2023/11/30 03:25:45;;;;;;;13.35;7.80;;;;;;;3.42;66.42;100001.91;5080349;27;100625;-78
2023/11/30 03:28:12;;;;;;;15.75;8.82;;;;;;;3.33;66.93;100003.81;5086933;27;96904;-77
2023/11/30 03:30:39;;;;;;;16.40;9.27;;;;;;;3.36;66.61;99998.53;5075052;27;97265;-77
2023/11/30 03:33:06;;;;;;;13.85;8.60;;;;;;;3.52;65.93;99998.25;5087408;27;99010;-77
2023/11/30 03:35:32;;;;;;;14.35;8.73;;;;;;;3.33;67.07;99994.25;5092029;27;99058;-77
2023/11/30 03:37:59;;;;;;;18.33;8.85;;;;;;;3.41;66.25;99992.38;5089474;27;97102;-78
2023/11/30 03:40:25;;;;;;;14.40;9.05;;;;;;;3.29;66.66;99997.78;5075174;27;96851;-78
2023/11/30 03:42:51;;;;;;;15.93;9.23;;;;;;;3.32;66.71;100000.34;5087184;27;99433;-77
2023/11/30 03:45:17;;;;;;;15.57;8.85;;;;;;;3.44;66.80;100002.75;5092052;27;98770;-78
2023/11/30 03:47:45;;;;;;;16.13;9.45;;;;;;;3.26;66.54;100000.47;5089746;27;97167;-77
2023/11/30 03:50:11;;;;;;;14.85;8.98;;;;;;;3.39;66.58;99999.34;5089274;27;96884;-78
2023/11/30 03:52:38;;;;;;;17.67;8.95;;;;;;;3.43;66.73;99998.41;5088292;27;99083;-77
2023/11/30 03:55:05;;;;;;;15.57;9.45;;;;;;;3.43;66.29;99989.69;5092754;27;97681;-77
2023/11/30 03:57:31;;;;;;;15.40;9.25;;;;;;;3.24;66.61;99983.97;5079761;27;96841;-77
2023/11/30 03:59:58;;;;;;;17.00;8.88;;;;;;;3.33;66.29;99985.56;5085411;27;97138;-79
2023/11/30 04:02:24;;;;;;;15.18;8.23;;;;;;;3.37;66.50;99988.06;5086495;27;99064;-77
2023/11/30 04:04:52;;;;;;;17.42;9.57;;;;;;;3.28;66.44;99984.78;5092031;27;100767;-77
2023/11/30 04:07:18;;;;;;;16.00;8.57;;;;;;;3.10;66.76;99992.03;5082217;27;98554;-77
2023/11/30 04:09:45;;;;;;;14.65;9.10;;;;;;;3.14;66.90;99992.84;5092049;27;96833;-78
2023/11/30 04:12:12;;;;;;;15.32;9.27;;;;;;;3.23;66.87;99997.91;5078055;27;99169;-77
2023/11/30 04:14:38;;;;;;;16.08;8.55;;;;;;;3.27;66.51;99994.34;5080871;27;99219;-78
2023/11/30 04:17:05;;;;;;;16.50;9.13;;;;;;;3.15;66.78;99990.19;5092526;27;96839;-77
2023/11/30 04:19:31;;;;;;;15.85;9.35;;;;;;;3.17;67.18;99998.00;5093791;27;96713;-77
2023/11/30 04:21:59;;;;;;;15.25;8.68;;;;;;;3.11;66.87;99998.13;5085873;27;98871;-77
2023/11/30 04:24:25;;;;;;;17.17;8.65;;;;;;;3.09;67.53;99995.53;5082266;27;99097;-78
2023/11/30 04:26:53;;;;;;;15.88;9.38;;;;;;;2.96;67.45;99995.75;5082091;27;97621;-77
2023/11/30 04:29:20;;;;;;;15.57;9.77;;;;;;;3.06;66.99;99989.50;5082217;27;96761;-77
2023/11/30 04:31:46;;;;;;;14.73;8.65;;;;;;;3.00;67.43;99990.47;5091917;27;98881;-77
2023/11/30 04:34:13;;;;;;;16.45;9.38;;;;;;;3.03;67.29;99990.41;5083019;27;98709;-78
2023/11/30 04:36:39;;;;;;;17.08;8.65;;;;;;;2.87;67.41;99988.94;5082452;27;96719;-78
2023/11/30 04:39:07;;;;;;;17.45;9.77;;;;;;;2.79;68.39;99999.50;5090488;27;97899;-77
2023/11/30 04:41:33;;;;;;;18.77;9.50;;;;;;;2.86;68.07;99992.44;5083126;27;98790;-76
2023/11/30 04:44:00;;;;;;;18.52;9.20;;;;;;;2.87;67.91;99993.31;5087458;27;99388;-76
2023/11/30 04:46:27;;;;;;;18.45;9.68;;;;;;;2.91;67.96;99992.34;5090004;27;96856;-77
2023/11/30 04:48:58;;;;;;;17.40;10.20;;;;;;;2.88;67.59;99995.91;5083328;27;97184;-77
2023/11/30 04:51:25;;;;;;;16.83;10.23;;;;;;;2.91;67.43;99985.41;5090348;27;99824;-77
2023/11/30 04:53:52;;;;;;;17.35;9.32;;;;;;;3.13;66.81;99996.34;5085887;27;99124;-77
2023/11/30 04:56:19;;;;;;;17.10;9.57;;;;;;;2.92;67.01;99996.69;5091056;27;97096;-77
2023/11/30 04:58:46;;;;;;;17.80;10.35;;;;;;;2.87;67.44;99988.09;5092181;27;96757;-78
2023/11/30 05:01:12;;;;;;;16.58;8.93;;;;;;;2.98;67.28;99988.75;5081150;27;99479;-79
2023/11/30 05:03:38;;;;;;;17.65;9.32;;;;;;;2.85;67.56;99995.06;5091735;27;97784;-78
2023/11/30 05:06:05;;;;;;;22.77;10.63;;;;;;;2.82;67.96;99989.91;5089395;27;97001;-78
2023/11/30 05:08:32;;;;;;;16.65;9.02;;;;;;;2.74;67.95;100000.47;5080851;27;96701;-78
2023/11/30 05:10:58;;;;;;;16.58;9.80;;;;;;;2.92;67.29;100007.13;5086752;27;98773;-78
2023/11/30 05:13:26;;;;;;;18.25;10.25;;;;;;;2.91;67.63;100008.03;5086144;27;98712;-79
2023/11/30 05:15:52;;;;;;;22.02;10.13;;;;;;;2.82;67.43;100016.00;5078929;27;96793;-79
2023/11/30 05:18:19;;;;;;;17.80;9.38;;;;;;;3.06;66.70;100016.47;5083599;27;96889;-78
2023/11/30 05:20:45;;;;;;;17.90;9.82;;;;;;;3.01;66.88;100012.22;5086272;27;99561;-78
2023/11/30 05:23:11;;;;;;;19.35;10.40;;;;;;;2.77;67.57;100014.31;5089893;27;99147;-78
2023/11/30 05:25:38;;;;;;;18.65;10.07;;;;;;;2.84;67.19;100014.22;5081364;27;97654;-79
2023/11/30 05:28:06;;;;;;;21.23;9.80;;;;;;;3.00;67.27;100010.50;5087924;27;96860;-78
2023/11/30 05:30:34;;;;;;;19.45;10.02;;;;;;;2.87;67.94;100024.63;5090279;27;98930;-78
2023/11/30 05:33:00;;;;;;;21.17;10.63;;;;;;;2.67;67.97;100031.00;5086497;27;99224;-78
2023/11/30 05:35:26;;;;;;;18.50;10.27;;;;;;;2.93;67.70;100017.56;5078326;27;97005;-77
2023/11/30 05:37:53;;;;;;;21.10;10.77;;;;;;;2.78;67.45;100029.09;5082891;27;96716;-77
2023/11/30 05:40:19;;;;;;;20.83;11.35;;;;;;;2.74;68.03;100022.22;5077983;27;99160;-77
2023/11/30 05:42:47;;;;;;;18.98;9.77;;;;;;;2.88;68.42;100024.59;5082215;27;98811;-78
2023/11/30 05:45:13;;;;;;;19.27;10.20;;;;;;;3.05;67.37;100026.94;5084696;27;98002;-78
2023/11/30 05:47:41;;;;;;;21.15;10.52;;;;;;;2.77;67.76;100023.88;5090556;27;96734;-78
2023/11/30 05:50:09;;;;;;;21.20;11.27;;;;;;;2.81;67.83;100022.97;5084107;27;99045;-77
2023/11/30 05:52:36;;;;;;;19.98;10.13;;;;;;;3.11;66.88;100022.47;5089500;27;98003;-78
2023/11/30 05:55:03;;;;;;;19.88;10.43;;;;;;;3.05;67.11;100033.00;5083534;27;99710;-77
2023/11/30 05:57:29;;;;;;;21.63;10.82;;;;;;;3.14;67.06;100032.88;5082389;27;96790;-77
2023/11/30 05:59:55;;;;;;;19.60;10.18;;;;;;;3.33;66.63;100036.03;5083737;27;98878;-78
2023/11/30 06:02:22;;;;;;;16.58;9.65;;;;;;;3.13;67.31;100041.59;5088730;27;99043;-78
2023/11/30 06:04:51;;;;;;;25.02;11.38;;;;;;;3.23;67.19;100039.66;5080631;27;96649;-78
2023/11/30 06:07:18;;;;;;;26.83;12.52;;;;;;;3.32;67.51;100042.13;5085597;27;96972;-78
2023/11/30 06:09:44;;;;;;;22.95;11.80;;;;;;;3.17;66.95;100039.78;5082189;27;97940;-78
2023/11/30 06:12:11;;;;;;;23.23;10.98;;;;;;;3.19;67.30;100040.63;5080543;27;99037;-78
2023/11/30 06:14:37;;;;;;;18.85;10.35;;;;;;;3.37;66.38;100042.91;5078034;27;96731;-79
2023/11/30 06:17:04;;;;;;;17.02;10.00;;;;;;;3.43;67.04;100053.25;5079987;27;97078;-78
2023/11/30 06:19:31;;;;;;;19.70;11.45;;;;;;;3.50;66.07;100047.03;5075393;27;98643;-79
2023/11/30 06:22:00;;;;;;;21.70;11.80;;;;;;;3.47;66.11;100048.84;5072431;27;99876;-78
2023/11/30 06:24:28;;;;;;;21.02;11.38;;;;;;;3.33;67.22;100048.22;5079545;27;98653;-79
2023/11/30 06:26:55;;;;;;;21.45;11.25;;;;;;;3.49;66.42;100045.31;5084377;27;99640;-78
2023/11/30 06:29:21;;;;;;;23.67;12.02;;;;;;;3.57;66.14;100056.47;5081378;27;98887;-79
2023/11/30 06:31:48;;;;;;;22.02;11.63;;;;;;;3.37;66.71;100052.50;5084391;27;99829;-78
2023/11/30 06:34:14;;;;;;;21.45;11.48;;;;;;;3.55;65.62;100041.72;5090468;27;96841;-78
2023/11/30 06:36:40;;;;;;;20.88;10.75;;;;;;;3.49;66.25;100047.03;5080758;27;96846;-77
2023/11/30 06:39:09;;;;;;;19.35;10.80;;;;;;;3.48;66.48;100054.03;5077025;27;98828;-77
2023/11/30 06:41:35;;;;;;;21.58;11.13;;;;;;;3.59;66.25;100059.06;5079067;27;99293;-77
2023/11/30 06:44:01;;;;;;;19.75;11.23;;;;;;;3.65;65.18;100058.09;5087518;27;96687;-77
2023/11/30 06:46:28;;;;;;;22.52;11.30;;;;;;;3.52;65.33;100052.22;5074113;27;96886;-77
2023/11/30 06:48:54;;;;;;;23.63;12.07;;;;;;;3.69;64.89;100051.91;5087087;27;99191;-77
2023/11/30 06:51:21;;;;;;;24.75;11.98;;;;;;;3.66;64.66;100052.84;5074484;27;98989;-77
2023/11/30 06:53:47;;;;;;;24.92;11.32;;;;;;;3.92;63.97;100060.19;5084328;27;96807;-80
2023/11/30 06:56:15;;;;;;;20.73;10.90;;;;;;;3.65;65.09;100055.47;5085871;27;96794;-77
2023/11/30 06:58:41;;;;;;;22.33;10.93;;;;;;;3.68;64.93;100061.50;5082659;27;99053;-77
2023/11/30 07:01:09;;;;;;;22.20;11.85;;;;;;;3.66;65.95;100063.31;5088510;27;99100;-78
2023/11/30 07:03:36;;;;;;;26.25;11.77;;;;;;;3.65;65.78;100063.31;5084430;27;96821;-78
2023/11/30 07:06:03;;;;;;;24.25;12.45;;;;;;;3.62;65.32;100066.84;5083471;27;97318;-78
2023/11/30 07:08:29;;;;;;;22.13;11.13;;;;;;;3.70;65.12;100071.94;5090667;27;99209;-78
2023/11/30 07:10:55;;;;;;;24.17;11.18;;;;;;;3.74;64.71;100071.84;5092338;27;98806;-79
2023/11/30 07:13:23;;;;;;;22.67;11.88;;;;;;;3.69;64.51;100065.84;5090468;27;96761;-77
2023/11/30 07:15:49;;;;;;;23.70;11.68;;;;;;;3.35;65.13;100072.56;5087001;27;98896;-77
2023/11/30 07:18:17;;;;;;;21.27;11.85;;;;;;;3.26;65.64;100080.53;5088615;27;100403;-78
2023/11/30 07:20:43;;;;;;;27.70;12.52;;;;;;;3.56;65.38;100077.41;5086860;27;99537;-77
2023/11/30 07:23:11;;;;;;;21.38;10.88;;;;;;;3.53;65.17;100078.34;5086900;27;96912;-77
2023/11/30 07:25:37;;;;;;;20.02;11.77;;;;;;;3.39;65.46;100075.09;5091451;27;97259;-76
2023/11/30 07:28:04;;;;;;;24.23;11.15;;;;;;;3.44;65.26;100065.41;5093722;27;99273;-78
2023/11/30 07:30:32;;;;;;;43.20;12.70;;;;;;;3.55;65.33;100060.88;5092317;27;99113;-77
2023/11/30 07:32:59;;;;;;;31.17;12.23;;;;;;;3.25;66.20;100069.25;5090650;27;97286;-77
2023/11/30 07:35:26;;;;;;;23.20;11.05;;;;;;;3.34;66.01;100069.09;5091290;27;97173;-79
2023/11/30 07:37:52;;;;;;;21.77;12.18;;;;;;;3.42;65.80;100085.47;5086912;27;97635;-79
2023/11/30 07:40:20;;;;;;;22.00;11.70;;;;;;;3.38;66.43;100086.44;5085981;27;98911;-78
2023/11/30 07:42:46;;;;;;;25.40;12.40;;;;;;;3.27;66.38;100096.19;5086976;27;96695;-77
2023/11/30 07:45:13;;;;;;;32.22;12.57;;;;;;;3.69;65.42;100094.59;5088789;27;96742;-77
2023/11/30 07:47:41;;;;;;;23.00;11.73;;;;;;;3.53;65.95;100096.63;5084864;27;97613;-78
2023/11/30 07:50:14;;;;;;;23.45;11.70;;;;;;;3.75;64.99;100098.84;5086068;27;98922;-78
2023/11/30 07:52:40;;;;;;;27.83;12.15;;;;;;;3.77;64.83;100105.75;5095035;27;96692;-77
2023/11/30 07:55:07;;;;;;;25.10;13.30;;;;;;;3.59;65.66;100101.75;5085283;27;96754;-79
2023/11/30 07:57:34;;;;;;;25.92;12.57;;;;;;;4.01;64.29;100101.81;5089124;27;101517;-78
2023/11/30 08:00:02;;;;;;;23.17;11.93;;;;;;;3.89;64.31;100099.44;5081892;27;98775;-77
2023/11/30 08:02:28;;;;;;;29.45;11.88;;;;;;;3.97;64.65;100097.56;5080051;27;98837;-77
2023/11/30 08:04:56;;;;;;;20.52;11.95;;;;;;;3.93;64.48;100108.97;5079573;27;96737;-77
2023/11/30 08:07:23;;;;;;;30.17;14.48;;;;;;;3.70;65.70;100109.38;5081066;27;100861;-77
2023/11/30 08:09:49;;;;;;;22.02;12.38;;;;;;;3.83;65.68;100110.00;5089716;27;98791;-78
2023/11/30 08:12:15;;;;;;;20.15;11.43;;;;;;;3.59;65.47;100106.09;5089829;27;96841;-76
2023/11/30 08:14:42;;;;;;;23.35;12.13;;;;;;;3.83;65.52;100112.63;5090019;27;96948;-77
2023/11/30 08:17:08;;;;;;;23.77;11.70;;;;;;;4.10;64.27;100112.13;5088823;27;99236;-77
2023/11/30 08:19:35;;;;;;;28.83;14.25;;;;;;;3.98;65.12;100104.50;5082554;27;98819;-78
2023/11/30 08:22:03;;;;;;;26.05;12.93;;;;;;;4.07;64.43;100108.72;5089844;27;96720;-79
2023/11/30 08:24:29;;;;;;;29.42;14.10;;;;;;;4.43;63.30;100107.09;5086647;27;96810;-78
2023/11/30 08:26:56;;;;;;;24.00;12.68;;;;;;;4.35;64.01;100112.50;5081250;27;99737;-78
2023/11/30 08:29:22;;;;;;;22.30;11.77;;;;;;;4.56;63.01;100114.66;5081359;27;99424;-78
2023/11/30 08:31:49;;;;;;;23.40;12.30;;;;;;;4.60;62.70;100105.00;5080428;27;96880;-77
2023/11/30 08:34:16;;;;;;;31.67;13.40;;;;;;;4.56;63.23;100113.81;5082077;27;96810;-77
2023/11/30 08:36:43;;;;;;;26.40;12.27;;;;;;;4.82;62.23;100111.50;5082022;27;98769;-79
2023/11/30 08:39:12;;;;;;;25.77;13.00;;;;;;;4.68;62.07;100100.47;5088069;27;101208;-78
2023/11/30 08:41:38;;;;;;;35.13;13.13;;;;;;;4.76;61.95;100106.41;5090068;27;97279;-78
2023/11/30 08:44:05;;;;;;;25.38;13.13;;;;;;;5.08;61.11;100103.03;5091810;27;96871;-78
2023/11/30 08:46:31;;;;;;;25.02;12.77;;;;;;;5.13;60.88;100099.41;5085040;27;98760;-78
2023/11/30 08:48:58;;;;;;;23.38;13.18;;;;;;;5.17;60.73;100102.84;5089705;27;98992;-78
2023/11/30 08:51:25;;;;;;;25.05;13.30;;;;;;;5.32;60.39;100106.81;5084434;27;97105;-78
2023/11/30 08:53:52;;;;;;;31.42;15.02;;;;;;;5.24;60.28;100104.41;5084638;27;98966;-79
2023/11/30 08:56:20;;;;;;;29.95;14.95;;;;;;;5.28;60.60;100102.56;5091929;27;99275;-79
2023/11/30 08:58:46;;;;;;;20.52;11.43;;;;;;;5.30;59.81;100108.66;5085242;27;98919;-77
2023/11/30 09:01:13;;;;;;;23.25;12.30;;;;;;;5.10;60.24;100104.75;5079965;27;98369;-78
2023/11/30 09:03:39;;;;;;;24.13;11.98;;;;;;;5.28;60.32;100108.69;5082226;27;96963;-78
2023/11/30 09:06:06;;;;;;;24.55;13.68;;;;;;;5.27;61.40;100113.94;5078803;27;98886;-77
2023/11/30 09:08:33;;;;;;;22.58;12.38;;;;;;;5.46;60.51;100110.84;5085109;27;97750;-78
2023/11/30 09:10:59;;;;;;;24.33;12.10;;;;;;;5.56;59.34;100108.88;5090229;27;96933;-77
2023/11/30 09:13:27;;;;;;;30.45;13.32;;;;;;;5.30;59.94;100106.88;5084366;27;97148;-78
2023/11/30 09:15:54;;;;;;;23.98;11.60;;;;;;;5.51;59.54;100110.75;5089902;27;98873;-78
2023/11/30 09:18:21;;;;;;;27.08;12.10;;;;;;;5.58;59.85;100107.03;5079584;27;99229;-78
2023/11/30 09:20:47;;;;;;;29.60;12.70;;;;;;;5.58;58.25;100113.16;5088862;27;97047;-78
2023/11/30 09:23:14;;;;;;;20.83;11.90;;;;;;;5.74;58.33;100103.16;5087102;27;97890;-77
2023/11/30 09:25:40;;;;;;;22.10;12.10;;;;;;;5.57;57.36;100100.09;5087850;27;98880;-77
2023/11/30 09:28:08;;;;;;;26.48;12.25;;;;;;;5.46;58.06;100097.75;5082493;27;98787;-77
2023/11/30 09:30:36;;;;;;;39.35;12.57;;;;;;;5.64;56.76;100098.19;5078008;27;97160;-79
2023/11/30 09:33:03;;;;;;;31.98;12.88;;;;;;;5.57;57.11;100100.97;5085686;27;98715;-79
2023/11/30 09:35:29;;;;;;;22.33;12.88;;;;;;;5.82;57.68;100095.09;5086702;27;99105;-77
2023/11/30 09:37:55;;;;;;;25.88;13.13;;;;;;;5.64;58.48;100088.56;5088663;27;98897;-78
2023/11/30 09:40:22;;;;;;;34.03;14.85;;;;;;;5.78;58.65;100093.44;5086549;27;97428;-77
2023/11/30 09:42:49;;;;;;;25.23;13.15;;;;;;;5.59;58.37;100093.03;5079758;27;96853;-77
2023/11/30 09:45:15;;;;;;;25.92;13.07;;;;;;;5.70;57.76;100083.16;5086659;27;98244;-77
2023/11/30 09:47:43;;;;;;;25.23;12.63;;;;;;;6.12;57.44;100082.94;5082154;27;98798;-78
2023/11/30 09:50:10;;;;;;;23.08;12.43;;;;;;;6.12;56.03;100081.16;5085482;27;96753;-77
2023/11/30 09:52:37;;;;;;;24.15;11.57;;;;;;;6.30;54.89;100077.19;5083064;27;96734;-78
2023/11/30 09:55:05;;;;;;;19.23;11.38;;;;;;;6.63;53.82;100085.84;5090081;27;98871;-78
2023/11/30 09:57:31;;;;;;;21.67;11.00;;;;;;;6.70;53.62;100074.22;5081334;27;99293;-77
2023/11/30 09:59:58;;;;;;;28.55;13.85;;;;;;;6.58;54.57;100078.06;5082525;27;96798;-77
2023/11/30 10:02:27;;;;;;;28.25;11.43;;;;;;;6.58;53.65;100077.22;5082260;27;97683;-77
2023/11/30 10:04:56;;;;;;;19.92;9.93;;;;;;;6.41;53.73;100075.09;5086883;27;99109;-78
2023/11/30 10:07:23;;;;;;;20.73;10.15;;;;;;;6.27;53.52;100069.38;5084165;27;99300;-77
2023/11/30 10:09:49;;;;;;;16.98;9.55;;;;;;;6.36;54.77;100072.63;5081548;27;96975;-77
2023/11/30 10:12:19;;;;;;;19.67;10.15;;;;;;;6.36;53.87;100071.75;5080690;27;96964;-77
2023/11/30 10:14:46;;;;;;;16.77;9.80;;;;;;;6.07;53.30;100071.72;5080061;27;98877;-77
2023/11/30 10:17:12;;;;;;;18.65;9.40;;;;;;;6.23;52.51;100065.13;5090059;27;98860;-78
2023/11/30 10:19:39;;;;;;;17.48;8.65;;;;;;;6.21;51.41;100061.69;5091785;27;96806;-77
2023/11/30 10:22:07;;;;;;;16.65;7.70;;;;;;;6.05;49.64;100047.28;5087919;27;97248;-78
2023/11/30 10:24:33;;;;;;;14.68;8.88;;;;;;;6.19;50.72;100055.63;5085479;27;100788;-77
2023/11/30 10:27:05;;;;;;;16.85;8.50;;;;;;;6.45;50.58;100058.34;5085652;27;97594;-77
2023/11/30 10:29:36;;;;;;;15.07;8.10;;;;;;;6.59;49.79;100047.44;5076548;27;97646;-78
2023/11/30 10:32:06;;;;;;;12.40;7.32;;;;;;;6.56;48.37;100047.53;5082063;27;96827;-78
2023/11/30 10:34:38;;;;;;;12.02;7.78;;;;;;;6.37;47.42;100048.06;5084970;27;98896;-78
2023/11/30 10:37:04;;;;;;;14.60;7.88;;;;;;;6.35;46.43;100046.41;5087138;27;98895;-78
2023/11/30 10:39:37;;;;;;;13.68;7.88;;;;;;;6.87;46.99;100044.84;5083517;27;97425;-78
2023/11/30 10:42:12;;;;;;;20.88;12.20;;;;;;;7.45;49.14;100036.75;5077447;27;96944;-79
2023/11/30 10:44:40;;;;;;;22.38;12.07;;;;;;;7.52;49.32;100035.66;5080271;27;98118;-74
2023/11/30 10:47:10;;;;;;;34.88;16.77;;;;;;;7.36;48.67;100036.19;5084450;27;100393;-74
2023/11/30 10:49:38;;;;;;;24.33;11.20;;;;;;;7.33;48.58;100045.06;5084339;27;98066;-74
2023/11/30 10:52:06;;;;;;;22.05;10.82;;;;;;;7.55;48.65;100035.53;5083039;27;97464;-74
2023/11/30 10:54:38;;;;;;;20.48;11.35;;;;;;;8.20;47.25;100034.97;5084065;27;98900;-74
2023/11/30 10:57:06;;;;;;;23.75;12.05;;;;;;;8.36;46.73;100033.50;5078620;27;98743;-74
2023/11/30 10:59:33;;;;;;;20.30;10.18;;;;;;;7.87;46.54;100029.16;5079723;27;96743;-74
2023/11/30 11:02:01;;;;;;;20.77;8.68;;;;;;;7.84;44.25;100025.75;5080025;27;96788;-74
2023/11/30 11:04:28;;;;;;;15.65;8.57;;;;;;;7.20;44.09;100018.34;5078742;27;99895;-74
2023/11/30 11:07:01;;;;;;;18.55;9.68;;;;;;;7.19;45.05;100015.75;5083056;27;101378;-74
2023/11/30 11:09:38;;;;;;;18.92;9.32;;;;;;;6.98;45.65;100019.94;5085432;27;97568;-74
2023/11/30 11:12:07;;;;;;;14.70;8.75;;;;;;;6.88;46.24;100015.03;5078976;27;96772;-75
2023/11/30 11:14:34;;;;;;;17.13;8.43;;;;;;;7.16;45.43;100000.06;5089550;27;97539;-78
2023/11/30 11:17:08;;;;;;;12.18;7.18;;;;;;;6.99;44.71;100007.66;5084922;27;98858;-74
2023/11/30 11:19:39;;;;;;;19.75;10.48;;;;;;;7.23;44.96;100001.59;5088543;27;97061;-75
2023/11/30 11:22:14;;;;;;;23.08;12.05;;;;;;;7.50;47.30;100008.53;5079793;27;97195;-74